createdAt,value
2023-04-27T00:00:14.430Z,107.49
2023-04-27T00:01:14.441Z,108.42
2023-04-27T00:02:14.541Z,107.54
2023-04-27T00:03:14.673Z,107.08
2023-04-27T00:04:14.821Z,105.94
2023-04-27T00:05:14.752Z,106.79
2023-04-27T00:06:14.737Z,106.18
2023-04-27T00:07:14.627Z,106.92
2023-04-27T00:08:14.616Z,106.43
2023-04-27T00:09:14.900Z,105.40
2023-04-27T00:10:14.713Z,103.90
2023-04-27T00:11:14.685Z,104.36
2023-04-27T00:12:14.754Z,104.91
2023-04-27T00:13:14.777Z,103.49
2023-04-27T00:14:14.780Z,103.10
2023-04-27T00:15:14.797Z,103.48
2023-04-27T00:16:14.864Z,103.32
2023-04-27T00:17:14.866Z,102.70
2023-04-27T00:18:14.848Z,102.38
2023-04-27T00:19:15.165Z,101.47
2023-04-27T00:20:14.924Z,102.12
2023-04-27T00:21:14.920Z,101.55
2023-04-27T00:22:15.078Z,101.57
2023-04-27T00:23:14.999Z,101.85
2023-04-27T00:24:15.012Z,101.48
2023-04-27T00:25:15.047Z,100.87
2023-04-27T00:26:15.061Z,101.43
2023-04-27T00:27:15.106Z,100.87
2023-04-27T00:28:15.086Z,100.17
2023-04-27T00:29:15.296Z,100.26
2023-04-27T00:30:15.160Z,99.79
2023-04-27T00:31:15.306Z,100.08
2023-04-27T00:32:15.321Z,98.52
2023-04-27T00:33:15.203Z,99.91
2023-04-27T00:34:15.274Z,100.03
2023-04-27T00:35:15.292Z,98.63
2023-04-27T00:36:15.329Z,98.64
2023-04-27T00:37:15.363Z,98.04
2023-04-27T00:38:15.368Z,98.79
2023-04-27T00:39:15.689Z,98.63
2023-04-27T00:40:15.460Z,98.36
2023-04-27T00:41:15.473Z,98.48
2023-04-27T00:42:15.505Z,97.73
2023-04-27T00:43:15.510Z,98.15
2023-04-27T00:44:15.547Z,97.61
2023-04-27T00:45:15.624Z,97.77
2023-04-27T00:46:15.675Z,96.80
2023-04-27T00:47:15.688Z,96.06
2023-04-27T00:48:15.688Z,98.48
2023-04-27T00:49:15.713Z,97.21
2023-04-27T00:50:15.753Z,96.27
2023-04-27T00:51:15.775Z,95.44
2023-04-27T00:52:15.830Z,96.04
2023-04-27T00:53:15.848Z,93.59
2023-04-27T00:54:15.859Z,94.97
2023-04-27T00:55:15.914Z,94.91
2023-04-27T00:56:15.930Z,95.23
2023-04-27T00:57:15.983Z,94.81
2023-04-27T00:58:16.021Z,94.00
2023-04-27T00:59:16.119Z,94.53
2023-04-27T01:00:16.065Z,93.52
2023-04-27T01:01:16.136Z,93.59
2023-04-27T01:02:16.179Z,94.19
2023-04-27T01:03:16.413Z,94.30
2023-04-27T01:04:16.377Z,93.07
2023-04-27T01:05:16.224Z,94.46
2023-04-27T01:06:16.281Z,93.63
2023-04-27T01:07:16.308Z,92.58
2023-04-27T01:08:16.305Z,92.75
2023-04-27T01:09:16.350Z,91.93
2023-04-27T01:10:16.387Z,91.61
2023-04-27T01:11:16.416Z,92.34
2023-04-27T01:12:16.456Z,92.02
2023-04-27T01:13:16.493Z,91.73
2023-04-27T01:14:16.506Z,92.33
2023-04-27T01:15:16.530Z,92.29
2023-04-27T01:16:16.566Z,90.48
2023-04-27T01:17:16.607Z,92.44
2023-04-27T01:18:16.624Z,91.37
2023-04-27T01:19:16.667Z,92.83
2023-04-27T01:20:16.678Z,92.24
2023-04-27T01:21:16.734Z,91.36
2023-04-27T01:22:16.749Z,90.27
2023-04-27T01:23:17.468Z,89.66
2023-04-27T01:24:16.796Z,89.88
2023-04-27T01:25:16.875Z,89.76
2023-04-27T01:26:16.896Z,90.32
2023-04-27T01:27:16.950Z,89.10
2023-04-27T01:28:16.970Z,88.68
2023-04-27T01:29:16.993Z,89.10
2023-04-27T01:30:16.991Z,88.53
2023-04-27T01:31:17.099Z,87.56
2023-04-27T01:32:17.097Z,87.71
2023-04-27T01:33:17.113Z,87.42
2023-04-27T01:34:17.766Z,86.95
2023-04-27T01:35:17.175Z,86.24
2023-04-27T01:36:17.220Z,87.02
2023-04-27T01:37:17.250Z,86.96
2023-04-27T01:38:17.263Z,86.39
2023-04-27T01:39:17.285Z,86.95
2023-04-27T01:40:17.359Z,85.98
2023-04-27T01:41:17.381Z,86.52
2023-04-27T01:42:17.425Z,87.31
2023-04-27T01:43:17.455Z,86.85
2023-04-27T01:44:17.504Z,84.55
2023-04-27T01:45:17.542Z,85.76
2023-04-27T01:46:17.575Z,84.78
2023-04-27T01:47:17.608Z,86.01
2023-04-27T01:48:17.626Z,85.45
2023-04-27T01:49:17.740Z,84.62
2023-04-27T01:50:17.718Z,85.11
2023-04-27T01:51:17.723Z,86.33
2023-04-27T01:52:17.791Z,84.90
2023-04-27T01:53:17.813Z,82.80
2023-04-27T01:54:17.830Z,84.37
2023-04-27T01:55:17.854Z,84.34
2023-04-27T01:56:17.885Z,84.42
2023-04-27T01:57:17.945Z,84.86
2023-04-27T01:58:17.963Z,84.04
2023-04-27T01:59:18.026Z,83.12
2023-04-27T02:00:18.072Z,83.42
2023-04-27T02:01:18.094Z,82.75
2023-04-27T02:02:18.157Z,82.72
2023-04-27T02:03:18.400Z,82.56
2023-04-27T02:04:18.406Z,82.20
2023-04-27T02:05:18.220Z,83.32
2023-04-27T02:06:18.274Z,81.45
2023-04-27T02:07:18.316Z,82.53
2023-04-27T02:08:18.322Z,80.44
2023-04-27T02:09:18.386Z,81.31
2023-04-27T02:10:18.403Z,82.61
2023-04-27T02:11:18.438Z,80.16
2023-04-27T02:12:18.519Z,80.76
2023-04-27T02:13:18.543Z,81.90
2023-04-27T02:14:18.572Z,81.41
2023-04-27T02:15:18.598Z,81.10
2023-04-27T02:16:18.673Z,80.31
2023-04-27T02:17:18.687Z,81.40
2023-04-27T02:18:18.712Z,77.22
2023-04-27T02:19:18.756Z,79.47
2023-04-27T02:20:18.809Z,81.43
2023-04-27T02:21:18.826Z,80.67
2023-04-27T02:22:18.885Z,79.77
2023-04-27T02:23:18.954Z,79.88
2023-04-27T02:24:18.972Z,78.84
2023-04-27T02:25:19.035Z,78.48
2023-04-27T02:26:19.076Z,78.12
2023-04-27T02:27:19.098Z,78.31
2023-04-27T02:28:19.133Z,78.56
2023-04-27T02:29:19.169Z,78.25
2023-04-27T02:30:19.234Z,78.41
2023-04-27T02:31:19.306Z,78.14
2023-04-27T02:32:19.291Z,77.83
2023-04-27T02:33:19.318Z,76.86
2023-04-27T02:34:19.350Z,77.02
2023-04-27T02:35:19.493Z,76.46
2023-04-27T02:36:19.432Z,75.27
2023-04-27T02:37:19.496Z,76.40
2023-04-27T02:38:19.533Z,77.87
2023-04-27T02:39:19.610Z,76.96
2023-04-27T02:40:19.609Z,75.89
2023-04-27T02:41:19.619Z,76.03
2023-04-27T02:42:19.712Z,75.81
2023-04-27T02:43:19.753Z,76.42
2023-04-27T02:44:19.788Z,76.00
2023-04-27T02:45:19.808Z,74.53
2023-04-27T02:46:19.884Z,75.55
2023-04-27T02:47:19.928Z,74.64
2023-04-27T02:48:19.948Z,73.73
2023-04-27T02:49:19.985Z,75.01
2023-04-27T02:50:20.017Z,73.84
2023-04-27T02:51:20.108Z,73.37
2023-04-27T02:52:20.121Z,74.83
2023-04-27T02:53:20.176Z,73.23
2023-04-27T02:54:20.243Z,71.54
2023-04-27T02:55:20.263Z,72.95
2023-04-27T02:56:20.296Z,72.40
2023-04-27T02:57:20.337Z,71.69
2023-04-27T02:58:20.458Z,74.19
2023-04-27T02:59:20.420Z,72.64
2023-04-27T03:00:20.477Z,73.87
2023-04-27T03:01:20.581Z,73.03
2023-04-27T03:02:20.618Z,72.36
2023-04-27T03:03:20.695Z,71.83
2023-04-27T03:04:20.737Z,71.84
2023-04-27T03:05:20.642Z,71.74
2023-04-27T03:06:20.662Z,69.44
2023-04-27T03:07:20.728Z,70.34
2023-04-27T03:08:20.765Z,70.35
2023-04-27T03:09:20.819Z,69.76
2023-04-27T03:10:20.871Z,70.99
2023-04-27T03:11:20.915Z,70.31
2023-04-27T03:12:20.938Z,71.13
2023-04-27T03:13:20.977Z,69.84
2023-04-27T03:14:21.051Z,69.63
2023-04-27T03:15:21.089Z,70.09
2023-04-27T03:16:21.179Z,70.09
2023-04-27T03:17:21.153Z,68.03
2023-04-27T03:18:21.205Z,70.18
2023-04-27T03:19:21.256Z,68.35
2023-04-27T03:20:21.309Z,67.82
2023-04-27T03:21:21.331Z,68.55
2023-04-27T03:22:21.378Z,69.15
2023-04-27T03:23:21.425Z,69.40
2023-04-27T03:24:21.480Z,67.51
2023-04-27T03:25:21.504Z,68.44
2023-04-27T03:26:21.546Z,67.37
2023-04-27T03:27:21.574Z,69.57
2023-04-27T03:28:21.637Z,67.03
2023-04-27T03:29:21.692Z,67.46
2023-04-27T03:30:21.708Z,66.34
2023-04-27T03:31:21.832Z,67.33
2023-04-27T03:32:21.777Z,67.06
2023-04-27T03:33:21.856Z,65.71
2023-04-27T03:34:21.930Z,67.99
2023-04-27T03:35:21.945Z,67.07
2023-04-27T03:36:21.966Z,67.47
2023-04-27T03:37:22.067Z,65.61
2023-04-27T03:38:22.112Z,64.54
2023-04-27T03:39:22.125Z,65.62
2023-04-27T03:40:22.188Z,67.03
2023-04-27T03:41:22.840Z,65.85
2023-04-27T03:42:22.310Z,65.25
2023-04-27T03:43:22.333Z,63.47
2023-04-27T03:44:22.379Z,63.05
2023-04-27T03:45:22.423Z,64.74
2023-04-27T03:46:22.498Z,63.86
2023-04-27T03:47:22.569Z,65.00
2023-04-27T03:48:22.585Z,65.39
2023-04-27T03:49:22.595Z,63.42
2023-04-27T03:50:22.663Z,64.72
2023-04-27T03:51:22.702Z,63.79
2023-04-27T03:52:22.767Z,64.10
2023-04-27T03:53:22.828Z,64.70
2023-04-27T03:54:22.852Z,65.26
2023-04-27T03:55:22.886Z,63.10
2023-04-27T03:56:22.969Z,64.18
2023-04-27T03:57:22.987Z,65.54
2023-04-27T03:58:23.032Z,63.56
2023-04-27T03:59:23.086Z,65.41
2023-04-27T04:00:23.088Z,63.57
2023-04-27T04:01:23.144Z,63.60
2023-04-27T04:02:23.355Z,63.90
2023-04-27T04:03:23.413Z,63.72
2023-04-27T04:04:23.477Z,65.42
2023-04-27T04:05:23.420Z,64.27
2023-04-27T04:06:23.388Z,62.97
2023-04-27T04:07:23.444Z,63.01
2023-04-27T04:08:23.499Z,64.35
2023-04-27T04:09:24.053Z,63.91
2023-04-27T04:10:23.569Z,63.34
2023-04-27T04:11:23.621Z,62.16
2023-04-27T04:12:23.660Z,63.53
2023-04-27T04:13:23.692Z,63.05
2023-04-27T04:14:23.783Z,61.34
2023-04-27T04:15:23.805Z,63.40
2023-04-27T04:16:23.855Z,62.31
2023-04-27T04:17:23.947Z,62.90
2023-04-27T04:18:23.944Z,62.25
2023-04-27T04:19:24.020Z,62.91
2023-04-27T04:20:24.064Z,62.15
2023-04-27T04:21:24.094Z,61.77
2023-04-27T04:22:24.138Z,62.62
2023-04-27T04:23:24.165Z,62.35
2023-04-27T04:24:24.230Z,61.99
2023-04-27T04:25:24.246Z,61.79
2023-04-27T04:26:24.333Z,61.19
2023-04-27T04:27:24.386Z,61.86
2023-04-27T04:28:24.422Z,61.45
2023-04-27T04:29:24.432Z,61.39
2023-04-27T04:30:24.517Z,61.19
2023-04-27T04:31:24.615Z,61.52
2023-04-27T04:32:24.601Z,61.33
2023-04-27T04:33:24.657Z,61.84
2023-04-27T04:34:24.707Z,60.44
2023-04-27T04:35:24.758Z,60.90
2023-04-27T04:36:24.814Z,61.27
2023-04-27T04:37:24.870Z,60.49
2023-04-27T04:38:24.914Z,60.74
2023-04-27T04:39:24.972Z,60.10
2023-04-27T04:40:25.000Z,60.91
2023-04-27T04:41:25.088Z,59.89
2023-04-27T04:42:25.124Z,60.50
2023-04-27T04:43:25.181Z,61.49
2023-04-27T04:44:25.225Z,60.02
2023-04-27T04:45:25.276Z,59.87
2023-04-27T04:46:25.357Z,61.15
2023-04-27T04:47:25.479Z,57.90
2023-04-27T04:48:25.465Z,50.58
2023-04-27T04:49:25.470Z,47.68
2023-04-27T04:50:25.587Z,47.02
2023-04-27T04:51:25.628Z,40.87
2023-04-27T04:52:25.654Z,37.00
2023-04-27T04:53:25.748Z,38.71
2023-04-27T04:54:25.760Z,40.94
2023-04-27T04:55:25.840Z,44.30
2023-04-27T04:56:25.867Z,45.75
2023-04-27T04:57:25.942Z,48.42
2023-04-27T04:58:25.996Z,50.22
2023-04-27T04:59:26.210Z,54.55
2023-04-27T05:00:26.120Z,58.07
2023-04-27T05:01:26.176Z,60.99
2023-04-27T05:02:26.412Z,61.18
2023-04-27T05:03:26.367Z,64.59
2023-04-27T05:04:26.459Z,67.27
2023-04-27T05:05:26.385Z,68.54
2023-04-27T05:06:26.423Z,68.89
2023-04-27T05:07:26.491Z,71.50
2023-04-27T05:08:26.530Z,71.49
2023-04-27T05:09:26.622Z,74.52
2023-04-27T05:10:26.635Z,73.42
2023-04-27T05:11:26.710Z,76.78
2023-04-27T05:12:26.749Z,79.13
2023-04-27T05:13:26.816Z,81.80
2023-04-27T05:14:26.866Z,85.29
2023-04-27T05:15:26.919Z,88.61
2023-04-27T05:16:26.979Z,92.71
2023-04-27T05:17:27.040Z,95.81
2023-04-27T05:18:27.060Z,99.00
2023-04-27T05:19:27.126Z,98.78
2023-04-27T05:20:27.210Z,100.48
2023-04-27T05:21:27.202Z,103.96
2023-04-27T05:22:27.270Z,104.68
2023-04-27T05:23:27.325Z,107.75
2023-04-27T05:24:27.395Z,108.86
2023-04-27T05:25:27.387Z,109.41
2023-04-27T05:26:27.449Z,112.18
2023-04-27T05:27:27.486Z,113.14
2023-04-27T05:28:27.555Z,112.28
2023-04-27T05:29:27.573Z,114.28
2023-04-27T05:30:27.629Z,115.48
2023-04-27T05:31:27.666Z,116.35
2023-04-27T05:32:27.757Z,119.30
2023-04-27T05:33:27.760Z,122.66
2023-04-27T05:34:27.784Z,122.86
2023-04-27T05:35:27.867Z,124.88
2023-04-27T05:36:27.866Z,128.75
2023-04-27T05:37:27.897Z,132.29
2023-04-27T05:38:27.961Z,132.87
2023-04-27T05:39:28.000Z,135.78
2023-04-27T05:40:28.054Z,138.35
2023-04-27T05:41:28.087Z,139.79
2023-04-27T05:42:28.117Z,141.24
2023-04-27T05:43:28.174Z,143.87
2023-04-27T05:44:28.223Z,145.42
2023-04-27T05:45:28.230Z,146.54
2023-04-27T05:46:28.325Z,149.16
2023-04-27T05:47:28.352Z,148.84
2023-04-27T05:48:28.846Z,152.93
2023-04-27T05:49:28.420Z,153.17
2023-04-27T05:50:28.455Z,157.35
2023-04-27T05:51:28.458Z,159.70
2023-04-27T05:52:28.883Z,161.81
2023-04-27T05:53:28.550Z,164.14
2023-04-27T05:54:28.581Z,166.04
2023-04-27T05:55:28.600Z,166.95
2023-04-27T05:56:28.619Z,169.71
2023-04-27T05:57:28.912Z,172.43
2023-04-27T05:58:28.677Z,175.71
2023-04-27T05:59:28.727Z,178.27
2023-04-27T06:00:28.799Z,182.10
2023-04-27T06:01:28.765Z,185.06
2023-04-27T06:02:29.034Z,186.46
2023-04-27T06:03:29.188Z,186.07
2023-04-27T06:04:29.061Z,187.18
2023-04-27T06:05:28.955Z,187.21
2023-04-27T06:06:28.892Z,187.91
2023-04-27T06:07:28.902Z,190.55
2023-04-27T06:08:28.940Z,189.90
2023-04-27T06:09:28.965Z,192.61
2023-04-27T06:10:29.095Z,194.31
2023-04-27T06:11:29.034Z,196.64
2023-04-27T06:12:29.054Z,201.58
2023-04-27T06:13:29.078Z,203.87
2023-04-27T06:14:29.085Z,205.28
2023-04-27T06:15:29.090Z,207.72
2023-04-27T06:16:29.193Z,208.45
2023-04-27T06:17:29.148Z,210.69
2023-04-27T06:18:29.160Z,212.88
2023-04-27T06:19:29.254Z,212.97
2023-04-27T06:20:29.202Z,216.46
2023-04-27T06:21:29.238Z,217.66
2023-04-27T06:22:29.206Z,218.50
2023-04-27T06:23:29.269Z,218.90
2023-04-27T06:24:29.315Z,218.66
2023-04-27T06:25:29.421Z,220.92
2023-04-27T06:26:29.328Z,220.07
2023-04-27T06:27:29.375Z,221.43
2023-04-27T06:28:29.318Z,224.85
2023-04-27T06:29:29.325Z,224.04
2023-04-27T06:30:29.351Z,227.35
2023-04-27T06:31:29.457Z,227.54
2023-04-27T06:32:29.443Z,230.60
2023-04-27T06:33:29.401Z,231.02
2023-04-27T06:34:29.387Z,231.62
2023-04-27T06:35:29.433Z,233.14
2023-04-27T06:36:29.412Z,233.06
2023-04-27T06:37:29.897Z,232.99
2023-04-27T06:38:29.479Z,233.48
2023-04-27T06:39:29.454Z,234.29
2023-04-27T06:40:29.478Z,235.71
2023-04-27T06:41:29.478Z,236.28
2023-04-27T06:42:29.440Z,238.67
2023-04-27T06:43:29.446Z,240.93
2023-04-27T06:44:29.458Z,240.94
2023-04-27T06:45:29.502Z,243.57
2023-04-27T06:46:29.485Z,243.94
2023-04-27T06:47:29.487Z,245.21
2023-04-27T06:48:29.516Z,247.87
2023-04-27T06:49:29.501Z,254.46
2023-04-27T06:50:29.555Z,247.21
2023-04-27T06:51:29.537Z,245.75
2023-04-27T06:52:29.526Z,244.76
2023-04-27T06:53:29.521Z,246.69
2023-04-27T06:54:29.501Z,248.55
2023-04-27T06:55:29.532Z,249.45
2023-04-27T06:56:29.538Z,248.94
2023-04-27T06:57:29.537Z,248.85
2023-04-27T06:58:29.593Z,248.68
2023-04-27T06:59:29.602Z,245.68
2023-04-27T07:00:29.604Z,247.75
2023-04-27T07:01:29.846Z,245.35
2023-04-27T07:02:29.641Z,245.59
2023-04-27T07:03:29.863Z,245.17
2023-04-27T07:04:29.697Z,244.02
2023-04-27T07:05:29.655Z,245.66
2023-04-27T07:06:29.684Z,246.99
2023-04-27T07:07:29.721Z,245.05
2023-04-27T07:08:29.700Z,248.43
2023-04-27T07:09:29.829Z,246.85
2023-04-27T07:10:29.747Z,246.72
2023-04-27T07:11:29.770Z,247.65
2023-04-27T07:12:29.807Z,247.83
2023-04-27T07:13:29.861Z,247.68
2023-04-27T07:14:29.882Z,247.38
2023-04-27T07:15:29.935Z,248.24
2023-04-27T07:16:30.117Z,248.53
2023-04-27T07:17:30.039Z,247.46
2023-04-27T07:18:30.086Z,245.83
2023-04-27T07:19:30.150Z,245.38
2023-04-27T07:20:30.297Z,249.63
2023-04-27T07:21:30.258Z,247.74
2023-04-27T07:22:30.310Z,249.91
2023-04-27T07:23:30.388Z,247.61
2023-04-27T07:24:30.432Z,248.47
2023-04-27T07:25:30.505Z,244.69
2023-04-27T07:26:30.532Z,248.11
2023-04-27T07:27:30.552Z,248.72
2023-04-27T07:28:30.657Z,246.93
2023-04-27T07:29:30.867Z,248.15
2023-04-27T07:30:30.842Z,242.59
2023-04-27T07:31:30.856Z,245.11
2023-04-27T07:32:30.864Z,245.36
2023-04-27T07:33:31.391Z,245.99
2023-04-27T07:34:41.103Z,247.57
2023-04-27T07:35:31.999Z,247.58
2023-04-27T07:36:31.001Z,246.85
2023-04-27T07:37:30.976Z,241.83
2023-04-27T07:38:31.005Z,246.37
2023-04-27T07:39:30.952Z,246.22
2023-04-27T07:40:30.954Z,248.39
2023-04-27T07:41:30.984Z,247.34
2023-04-27T07:42:30.928Z,248.01
2023-04-27T07:43:31.434Z,247.77
2023-04-27T07:44:30.998Z,247.33
2023-04-27T07:45:31.091Z,223.46
2023-04-27T07:46:31.106Z,210.84
2023-04-27T07:47:31.151Z,218.95
2023-04-27T07:48:31.455Z,229.17
2023-04-27T07:49:31.237Z,224.38
2023-04-27T07:50:31.286Z,214.74
2023-04-27T07:51:31.273Z,210.10
2023-04-27T07:52:31.329Z,210.86
2023-04-27T07:53:31.383Z,209.25
2023-04-27T07:54:31.599Z,197.62
2023-04-27T07:55:31.476Z,198.35
2023-04-27T07:56:31.456Z,193.14
2023-04-27T07:57:31.533Z,196.44
2023-04-27T07:58:31.550Z,188.19
2023-04-27T07:59:31.554Z,191.96
2023-04-27T08:00:31.554Z,186.85
2023-04-27T08:01:31.608Z,179.56
2023-04-27T08:02:31.739Z,182.72
2023-04-27T08:03:31.934Z,180.88
2023-04-27T08:04:32.021Z,183.84
2023-04-27T08:05:32.145Z,174.77
2023-04-27T08:06:32.263Z,175.16
2023-04-27T08:07:31.998Z,174.94
2023-04-27T08:08:31.953Z,177.20
2023-04-27T08:09:31.889Z,180.17
2023-04-27T08:10:31.950Z,179.32
2023-04-27T08:11:31.973Z,172.73
2023-04-27T08:12:31.983Z,176.47
2023-04-27T08:13:32.433Z,175.92
2023-04-27T08:14:32.057Z,176.51
2023-04-27T08:15:32.088Z,174.69
2023-04-27T08:16:32.156Z,171.86
2023-04-27T08:17:32.201Z,176.18
2023-04-27T08:18:32.213Z,173.98
2023-04-27T08:19:32.270Z,173.84
2023-04-27T08:20:32.359Z,176.24
2023-04-27T08:21:32.355Z,174.96
2023-04-27T08:22:32.416Z,170.34
2023-04-27T08:23:32.470Z,163.88
2023-04-27T08:24:32.519Z,170.29
2023-04-27T08:25:32.535Z,172.66
2023-04-27T08:26:32.646Z,171.00
2023-04-27T08:27:32.641Z,170.32
2023-04-27T08:28:32.714Z,172.92
2023-04-27T08:29:32.961Z,173.09
2023-04-27T08:30:32.841Z,176.17
2023-04-27T08:31:32.886Z,178.91
2023-04-27T08:32:32.975Z,172.24
2023-04-27T08:33:33.004Z,171.34
2023-04-27T08:34:33.035Z,177.09
2023-04-27T08:35:33.105Z,167.94
2023-04-27T08:36:33.111Z,157.46
2023-04-27T08:37:33.149Z,146.39
2023-04-27T08:38:33.451Z,125.50
2023-04-27T08:39:33.133Z,139.24
2023-04-27T08:40:33.144Z,127.65
2023-04-27T08:41:33.148Z,113.16
2023-04-27T08:42:33.248Z,123.61
2023-04-27T08:43:33.173Z,134.79
2023-04-27T08:44:33.175Z,141.30
2023-04-27T08:45:33.177Z,147.07
2023-04-27T08:46:33.205Z,140.84
2023-04-27T08:47:42.576Z,158.36
2023-04-27T08:48:34.161Z,158.68
2023-04-27T08:49:33.143Z,154.12
2023-04-27T08:50:33.166Z,149.63
2023-04-27T08:51:33.164Z,160.75
2023-04-27T08:52:33.120Z,174.48
2023-04-27T08:53:33.450Z,191.36
2023-04-27T08:54:33.136Z,199.61
2023-04-27T08:55:33.126Z,204.28
2023-04-27T08:56:34.975Z,205.79
2023-04-27T08:57:33.106Z,203.66
2023-04-27T08:58:33.133Z,206.16
2023-04-27T08:59:33.139Z,211.49
2023-04-27T09:00:33.105Z,213.33
2023-04-27T09:01:33.146Z,214.24
2023-04-27T09:02:33.202Z,220.36
2023-04-27T09:03:33.184Z,219.48
2023-04-27T09:04:33.377Z,217.94
2023-04-27T09:05:33.318Z,222.06
2023-04-27T09:06:33.469Z,218.28
2023-04-27T09:07:33.407Z,223.32
2023-04-27T09:08:33.438Z,224.09
2023-04-27T09:09:33.511Z,222.58
2023-04-27T09:10:33.516Z,219.57
2023-04-27T09:11:33.618Z,216.50
2023-04-27T09:12:33.656Z,211.55
2023-04-27T09:13:33.713Z,212.99
2023-04-27T09:14:33.779Z,216.58
2023-04-27T09:15:33.964Z,216.41
2023-04-27T09:16:33.949Z,219.46
2023-04-27T09:17:34.033Z,217.80
2023-04-27T09:18:34.021Z,217.72
2023-04-27T09:19:34.054Z,217.76
2023-04-27T09:20:34.167Z,215.15
2023-04-27T09:21:34.214Z,215.88
2023-04-27T09:22:34.243Z,210.46
2023-04-27T09:23:34.338Z,213.28
2023-04-27T09:24:34.374Z,216.49
2023-04-27T09:25:34.413Z,214.51
2023-04-27T09:26:34.495Z,218.26
2023-04-27T09:27:34.542Z,180.41
2023-04-27T09:28:34.601Z,153.85
2023-04-27T09:29:34.637Z,169.49
2023-04-27T09:30:34.658Z,184.94
2023-04-27T09:31:34.816Z,196.25
2023-04-27T09:32:34.736Z,191.13
2023-04-27T09:33:34.732Z,187.39
2023-04-27T09:34:34.808Z,189.67
2023-04-27T09:35:34.860Z,197.81
2023-04-27T09:36:34.899Z,200.22
2023-04-27T09:37:34.985Z,205.16
2023-04-27T09:38:35.025Z,206.88
2023-04-27T09:39:35.457Z,204.64
2023-04-27T09:40:35.103Z,211.16
2023-04-27T09:41:35.128Z,217.29
2023-04-27T09:42:35.179Z,219.24
2023-04-27T09:43:35.191Z,228.06
2023-04-27T09:44:35.456Z,231.95
2023-04-27T09:45:35.327Z,234.09
2023-04-27T09:46:35.291Z,215.22
2023-04-27T09:47:35.379Z,206.83
2023-04-27T09:48:35.384Z,221.14
2023-04-27T09:49:35.486Z,222.59
2023-04-27T09:50:37.381Z,223.19
2023-04-27T09:51:35.655Z,229.57
2023-04-27T09:52:35.702Z,231.97
2023-04-27T09:53:35.737Z,235.18
2023-04-27T09:54:35.770Z,235.32
2023-04-27T09:55:35.772Z,236.60
2023-04-27T09:56:35.820Z,236.22
2023-04-27T09:57:35.849Z,237.46
2023-04-27T09:58:35.868Z,236.61
2023-04-27T09:59:35.958Z,235.08
2023-04-27T10:00:35.907Z,233.55
2023-04-27T10:01:37.428Z,235.05
2023-04-27T10:02:46.435Z,234.64
2023-04-27T10:03:37.076Z,234.68
2023-04-27T10:04:36.080Z,234.79
2023-04-27T10:05:35.942Z,234.14
2023-04-27T10:06:35.903Z,234.35
2023-04-27T10:07:35.904Z,235.43
2023-04-27T10:08:35.918Z,234.86
2023-04-27T10:09:35.893Z,234.24
2023-04-27T10:10:35.904Z,233.87
2023-04-27T10:11:35.876Z,233.96
2023-04-27T10:12:35.865Z,232.80
2023-04-27T10:13:35.881Z,233.41
2023-04-27T10:14:35.900Z,233.95
2023-04-27T10:15:35.874Z,232.91
2023-04-27T10:16:35.876Z,233.09
2023-04-27T10:17:35.922Z,232.83
2023-04-27T10:18:35.846Z,235.38
2023-04-27T10:19:35.845Z,234.86
2023-04-27T10:20:35.820Z,236.28
2023-04-27T10:21:35.821Z,229.10
2023-04-27T10:22:36.127Z,228.21
2023-04-27T10:23:35.802Z,227.79
2023-04-27T10:24:35.888Z,223.63
2023-04-27T10:25:35.912Z,230.90
2023-04-27T10:26:37.301Z,229.60
2023-04-27T10:27:36.143Z,233.28
2023-04-27T10:28:36.158Z,235.44
2023-04-27T10:29:36.140Z,234.88
2023-04-27T10:30:36.202Z,235.23
2023-04-27T10:31:36.242Z,234.83
2023-04-27T10:32:36.277Z,235.51
2023-04-27T10:33:36.280Z,232.42
2023-04-27T10:34:36.491Z,231.77
2023-04-27T10:35:36.292Z,231.83
2023-04-27T10:36:36.330Z,229.68
2023-04-27T10:37:36.380Z,217.69
2023-04-27T10:38:36.419Z,217.26
2023-04-27T10:39:47.702Z,219.92
2023-04-27T10:40:37.448Z,219.98
2023-04-27T10:41:36.402Z,220.80
2023-04-27T10:42:36.407Z,223.82
2023-04-27T10:43:36.390Z,227.93
2023-04-27T10:44:36.523Z,233.29
2023-04-27T10:45:36.376Z,234.53
2023-04-27T10:46:36.768Z,238.71
2023-04-27T10:47:36.410Z,241.63
2023-04-27T10:48:36.357Z,242.92
2023-04-27T10:49:36.359Z,245.10
2023-04-27T10:50:36.342Z,246.13
2023-04-27T10:51:36.345Z,243.59
2023-04-27T10:52:36.355Z,242.83
2023-04-27T10:53:36.333Z,241.99
2023-04-27T10:54:36.358Z,244.51
2023-04-27T10:55:36.343Z,244.92
2023-04-27T10:56:36.339Z,242.05
2023-04-27T10:57:36.313Z,246.71
2023-04-27T10:58:47.987Z,247.74
2023-04-27T10:59:37.393Z,247.84
2023-04-27T11:00:36.355Z,248.05
2023-04-27T11:01:36.348Z,246.69
2023-04-27T11:02:36.461Z,247.69
2023-04-27T11:03:36.711Z,248.88
2023-04-27T11:04:36.359Z,248.54
2023-04-27T11:05:36.329Z,250.00
2023-04-27T11:06:36.325Z,249.63
2023-04-27T11:07:36.318Z,249.30
2023-04-27T11:08:36.334Z,247.42
2023-04-27T11:09:36.424Z,246.03
2023-04-27T11:10:36.475Z,247.57
2023-04-27T11:11:36.572Z,250.00
2023-04-27T11:12:36.606Z,249.09
2023-04-27T11:13:36.623Z,250.00
2023-04-27T11:14:36.757Z,250.00
2023-04-27T11:15:36.723Z,248.21
2023-04-27T11:16:36.800Z,248.50
2023-04-27T11:17:36.877Z,249.53
2023-04-27T11:18:36.876Z,248.90
2023-04-27T11:19:36.954Z,246.46
2023-04-27T11:20:36.977Z,245.82
2023-04-27T11:21:37.035Z,244.78
2023-04-27T11:22:37.076Z,248.60
2023-04-27T11:23:37.119Z,246.81
2023-04-27T11:24:37.195Z,245.92
2023-04-27T11:25:37.215Z,249.79
2023-04-27T11:26:37.295Z,250.00
2023-04-27T11:27:37.329Z,248.82
2023-04-27T11:28:37.356Z,249.24
2023-04-27T11:29:37.496Z,249.03
2023-04-27T11:30:37.447Z,249.35
2023-04-27T11:31:37.500Z,250.00
2023-04-27T11:32:37.570Z,249.41
2023-04-27T11:33:37.589Z,248.88
2023-04-27T11:34:38.017Z,248.50
2023-04-27T11:35:37.640Z,244.30
2023-04-27T11:36:37.707Z,243.95
2023-04-27T11:37:37.715Z,239.20
2023-04-27T11:38:37.823Z,240.47
2023-04-27T11:39:37.848Z,235.26
2023-04-27T11:40:37.884Z,231.69
2023-04-27T11:41:37.963Z,228.24
2023-04-27T11:42:37.961Z,225.51
2023-04-27T11:43:38.019Z,224.87
2023-04-27T11:44:38.093Z,221.49
2023-04-27T11:45:38.125Z,212.06
2023-04-27T11:46:38.352Z,213.99
2023-04-27T11:47:38.314Z,212.88
2023-04-27T11:48:38.294Z,211.05
2023-04-27T11:49:38.361Z,193.06
2023-04-27T11:50:38.366Z,198.13
2023-04-27T11:51:38.425Z,201.14
2023-04-27T11:52:38.471Z,196.54
2023-04-27T11:53:38.535Z,197.89
2023-04-27T11:54:38.550Z,198.20
2023-04-27T11:55:38.593Z,191.71
2023-04-27T11:56:38.611Z,181.77
2023-04-27T11:57:38.662Z,188.55
2023-04-27T11:58:38.716Z,180.42
2023-04-27T11:59:38.724Z,171.26
2023-04-27T12:00:38.719Z,141.42
2023-04-27T12:01:38.698Z,147.39
2023-04-27T12:02:39.042Z,97.55
2023-04-27T12:03:39.144Z,108.94
2023-04-27T12:04:39.047Z,100.62
2023-04-27T12:05:38.934Z,83.21
2023-04-27T12:06:39.001Z,84.13
2023-04-27T12:07:38.898Z,86.46
2023-04-27T12:08:38.868Z,100.97
2023-04-27T12:09:38.870Z,112.11
2023-04-27T12:10:38.896Z,134.75
2023-04-27T12:11:38.934Z,151.15
2023-04-27T12:12:38.971Z,160.98
2023-04-27T12:13:38.936Z,156.71
2023-04-27T12:14:38.934Z,164.98
2023-04-27T12:15:38.936Z,174.25
2023-04-27T12:16:38.993Z,182.89
2023-04-27T12:17:39.012Z,185.56
2023-04-27T12:18:38.982Z,183.72
2023-04-27T12:19:39.033Z,185.75
2023-04-27T12:20:39.034Z,184.33
2023-04-27T12:21:39.081Z,186.51
2023-04-27T12:22:39.053Z,191.25
2023-04-27T12:23:39.147Z,189.60
2023-04-27T12:24:39.109Z,182.92
2023-04-27T12:25:39.143Z,173.32
2023-04-27T12:26:39.173Z,163.85
2023-04-27T12:27:39.195Z,174.27
2023-04-27T12:28:39.173Z,167.26
2023-04-27T12:29:39.222Z,169.79
2023-04-27T12:30:39.261Z,173.64
2023-04-27T12:31:39.295Z,174.91
2023-04-27T12:32:39.272Z,178.21
2023-04-27T12:33:39.263Z,171.32
2023-04-27T12:34:39.274Z,163.47
2023-04-27T12:35:39.249Z,152.85
2023-04-27T12:36:39.285Z,152.78
2023-04-27T12:37:39.299Z,160.36